Time;durP1;ratioP1;P1;durP2;ratioP2;P2;SDS_P1;SDS_P2;PMS_P1;PMS_P2;Temp;Humidity;BMP_temperature;BMP_pressure;BME280_temperature;BME280_humidity;BME280_pressure;Samples;Min_cycle;Max_cycle;Signal;HPM_P1;HPM_P2
2022/08/07 00:01:05;;;;;;;3.05;2.85;;;21.90;38.90;;;;;;5023483;28;20582;-87
2022/08/07 00:03:32;;;;;;;2.50;2.40;;;21.70;38.50;;;;;;5058297;28;20187;-86
2022/08/07 00:05:58;;;;;;;2.63;2.42;;;21.70;38.60;;;;;;5042036;28;20539;-87
2022/08/07 00:08:24;;;;;;;5.18;2.90;;;21.60;39.50;;;;;;5041274;28;20217;-86
2022/08/07 00:10:51;;;;;;;2.65;2.45;;;21.70;38.40;;;;;;5025446;28;20351;-86
2022/08/07 00:13:22;;;;;;;2.40;2.30;;;21.80;38.20;;;;;;5044358;28;20207;-87
2022/08/07 00:15:50;;;;;;;2.40;2.20;;;21.70;38.40;;;;;;5032292;28;20331;-87
2022/08/07 00:18:19;;;;;;;2.30;2.20;;;21.80;38.90;;;;;;5046648;28;20180;-87
2022/08/07 00:20:45;;;;;;;2.60;2.30;;;21.90;37.70;;;;;;5018319;28;20185;-86
2022/08/07 00:23:11;;;;;;;2.50;2.30;;;22.10;38.50;;;;;;5045077;28;20206;-87
2022/08/07 00:25:38;;;;;;;2.42;2.33;;;22.20;37.50;;;;;;5044665;28;20192;-87
2022/08/07 00:28:05;;;;;;;2.65;2.45;;;22.20;37.60;;;;;;5009823;28;20202;-87
2022/08/07 00:30:31;;;;;;;2.53;2.38;;;22.30;37.90;;;;;;5035690;28;20280;-87
2022/08/07 00:32:59;;;;;;;2.50;2.30;;;22.30;37.20;;;;;;5042054;28;20800;-87
2022/08/07 00:35:27;;;;;;;2.40;2.30;;;22.20;37.70;;;;;;5064308;28;20184;-87
2022/08/07 00:37:53;;;;;;;2.60;2.50;;;22.10;36.80;;;;;;5045387;28;20191;-86
2022/08/07 00:40:20;;;;;;;2.30;2.10;;;22.10;37.40;;;;;;5017794;28;20216;-86
2022/08/07 00:42:46;;;;;;;2.63;2.33;;;21.90;37.60;;;;;;5019358;28;20196;-87
2022/08/07 00:45:12;;;;;;;2.33;2.15;;;21.90;37.30;;;;;;5019360;28;20869;-87
2022/08/07 00:47:38;;;;;;;2.38;2.28;;;21.90;38.50;;;;;;5054197;28;20185;-86
2022/08/07 00:50:05;;;;;;;3.17;2.40;;;22.00;37.90;;;;;;5041591;28;20223;-86
2022/08/07 00:52:32;;;;;;;2.55;2.30;;;21.90;37.50;;;;;;5056690;28;20187;-87
2022/08/07 00:54:59;;;;;;;2.53;2.33;;;21.90;38.00;;;;;;5055187;28;20223;-87
2022/08/07 00:57:25;;;;;;;3.58;2.40;;;22.00;37.80;;;;;;5022599;28;20207;-87
2022/08/07 00:59:52;;;;;;;2.45;2.22;;;22.00;38.60;;;;;;5055091;28;20243;-87
2022/08/07 01:02:19;;;;;;;2.50;2.22;;;21.90;38.40;;;;;;5045945;28;20267;-86
2022/08/07 01:04:45;;;;;;;2.25;2.10;;;21.80;37.60;;;;;;5063335;28;20233;-87
2022/08/07 01:07:11;;;;;;;2.22;2.13;;;21.60;38.60;;;;;;5045367;28;20259;-87
2022/08/07 01:09:37;;;;;;;2.40;2.30;;;21.70;39.20;;;;;;5063949;28;20208;-87
2022/08/07 01:12:04;;;;;;;2.40;2.10;;;21.60;38.30;;;;;;5037748;28;20218;-87
2022/08/07 01:14:30;;;;;;;2.40;2.20;;;21.60;38.20;;;;;;5059479;28;20543;-86
2022/08/07 01:16:57;;;;;;;2.20;2.10;;;21.30;39.30;;;;;;5026650;28;20187;-87
2022/08/07 01:19:25;;;;;;;2.15;2.05;;;21.20;39.20;;;;;;5026986;28;20754;-87
2022/08/07 01:21:52;;;;;;;2.38;2.28;;;21.20;40.30;;;;;;5021349;28;20215;-87
2022/08/07 01:24:18;;;;;;;2.42;2.25;;;21.20;40.40;;;;;;5033883;28;20191;-88
2022/08/07 01:26:46;;;;;;;2.25;2.15;;;21.20;39.60;;;;;;5028261;28;20176;-87
2022/08/07 01:29:13;;;;;;;2.10;2.00;;;21.30;40.30;;;;;;5018660;28;20220;-86
2022/08/07 01:31:40;;;;;;;4.30;2.25;;;21.30;40.20;;;;;;5025310;28;20187;-87
2022/08/07 01:34:06;;;;;;;2.22;2.00;;;21.20;40.30;;;;;;5063225;28;20198;-87
2022/08/07 01:36:33;;;;;;;4.05;2.15;;;21.00;41.00;;;;;;5022759;28;20291;-87
2022/08/07 01:38:59;;;;;;;2.85;2.25;;;20.90;41.60;;;;;;5025488;28;20211;-87
2022/08/07 01:41:26;;;;;;;2.15;2.00;;;20.60;42.30;;;;;;5037605;28;20186;-87
2022/08/07 01:43:52;;;;;;;2.65;2.20;;;20.70;43.20;;;;;;5049095;28;20215;-86
2022/08/07 01:46:19;;;;;;;3.63;2.03;;;20.60;42.60;;;;;;5052246;28;20196;-87
2022/08/07 01:48:47;;;;;;;2.30;2.10;;;20.70;43.20;;;;;;5044867;28;20202;-87
2022/08/07 01:51:19;;;;;;;2.17;2.08;;;20.90;42.30;;;;;;5041157;28;20263;-87
2022/08/07 01:53:49;;;;;;;2.78;2.30;;;20.90;41.90;;;;;;5022976;28;20664;-86
2022/08/07 01:56:41;;;;;;;2.20;2.00;;;20.80;42.70;;;;;;5056256;28;20199;-86
2022/08/07 01:59:31;;;;;;;2.33;2.00;;;20.70;42.40;;;;;;5034144;28;20205;-87
2022/08/07 02:02:06;;;;;;;2.20;2.10;;;20.50;42.90;;;;;;5042587;28;20206;-88
2022/08/07 02:04:46;;;;;;;2.13;2.00;;;20.40;43.80;;;;;;5055777;28;20301;-87
2022/08/07 02:07:16;;;;;;;2.05;1.95;;;20.60;43.80;;;;;;5052717;28;20235;-86
2022/08/07 02:09:45;;;;;;;2.00;1.90;;;20.60;43.00;;;;;;5040840;28;20214;-88
2022/08/07 02:12:18;;;;;;;3.20;2.10;;;20.50;44.10;;;;;;5022212;28;20766;-86
2022/08/07 02:14:56;;;;;;;2.35;2.15;;;20.40;43.70;;;;;;5041455;28;20218;-86
2022/08/07 02:17:24;;;;;;;2.28;2.08;;;20.30;44.40;;;;;;5014056;28;20190;-86
2022/08/07 02:19:51;;;;;;;2.20;2.10;;;20.20;44.00;;;;;;5037986;28;20273;-87
2022/08/07 02:22:19;;;;;;;3.15;2.30;;;20.10;44.40;;;;;;5048352;28;20334;-86
2022/08/07 02:24:47;;;;;;;2.10;2.00;;;20.00;45.30;;;;;;5028853;28;20242;-86
2022/08/07 02:27:15;;;;;;;2.67;2.17;;;20.00;45.00;;;;;;5038132;28;20189;-87
2022/08/07 02:29:43;;;;;;;2.45;2.25;;;20.00;44.60;;;;;;5036251;28;20228;-87
2022/08/07 02:32:11;;;;;;;2.70;2.20;;;20.00;44.80;;;;;;5025870;28;20355;-86
2022/08/07 02:34:40;;;;;;;2.17;2.08;;;20.20;45.10;;;;;;5027592;28;20208;-86
2022/08/07 02:37:09;;;;;;;3.60;2.05;;;20.10;43.40;;;;;;5043483;28;20196;-87
2022/08/07 02:39:42;;;;;;;2.55;2.20;;;20.20;43.70;;;;;;5024345;28;20721;-87
2022/08/07 02:42:10;;;;;;;2.00;1.90;;;20.10;44.30;;;;;;5007385;28;20204;-87
2022/08/07 02:44:39;;;;;;;2.83;2.15;;;20.10;43.80;;;;;;5033442;28;20190;-86
2022/08/07 02:47:07;;;;;;;2.25;2.15;;;20.10;43.80;;;;;;5044724;28;20192;-87
2022/08/07 02:49:34;;;;;;;2.22;2.13;;;20.10;44.00;;;;;;5044404;28;20204;-86
2022/08/07 02:52:02;;;;;;;2.30;2.20;;;20.10;43.70;;;;;;5043134;28;20199;-87
2022/08/07 02:54:31;;;;;;;2.40;2.20;;;20.20;43.90;;;;;;5042073;28;20246;-86
2022/08/07 02:57:00;;;;;;;2.85;2.10;;;20.00;42.90;;;;;;5051335;28;20195;-87
2022/08/07 02:59:29;;;;;;;2.13;2.03;;;19.70;43.20;;;;;;5020664;28;20200;-86
2022/08/07 03:01:56;;;;;;;2.33;2.22;;;19.70;44.00;;;;;;5039131;28;20196;-86
2022/08/07 03:04:23;;;;;;;2.10;1.90;;;19.60;44.60;;;;;;5054667;28;20284;-86
2022/08/07 03:06:50;;;;;;;3.38;2.20;;;19.50;44.40;;;;;;5053562;28;20219;-85
2022/08/07 03:09:18;;;;;;;2.22;2.13;;;19.40;46.10;;;;;;5020625;28;20220;-88
2022/08/07 03:11:44;;;;;;;2.30;2.20;;;19.60;45.40;;;;;;5036288;28;20188;-87
2022/08/07 03:14:11;;;;;;;2.45;2.25;;;19.60;44.10;;;;;;5055133;28;20214;-87
2022/08/07 03:16:37;;;;;;;3.95;3.03;;;19.40;44.70;;;;;;5058040;28;20234;-87
2022/08/07 03:19:03;;;;;;;2.30;2.20;;;19.40;45.50;;;;;;5045281;28;20223;-87
2022/08/07 03:21:29;;;;;;;2.25;2.15;;;19.40;45.30;;;;;;5043958;28;20176;-88
2022/08/07 03:23:58;;;;;;;2.50;2.30;;;19.40;45.40;;;;;;5018111;28;20215;-87
2022/08/07 03:26:27;;;;;;;2.60;2.20;;;19.20;45.50;;;;;;5057684;28;20199;-87
2022/08/07 03:28:54;;;;;;;2.63;2.20;;;19.30;46.10;;;;;;5026014;28;20212;-87
2022/08/07 03:31:22;;;;;;;2.10;2.00;;;19.20;45.70;;;;;;5028392;28;20206;-86
2022/08/07 03:33:54;;;;;;;2.40;2.20;;;19.10;46.70;;;;;;5052407;28;20205;-87
2022/08/07 03:36:22;;;;;;;2.72;2.53;;;19.10;46.10;;;;;;5056331;28;20817;-87
2022/08/07 03:38:51;;;;;;;2.50;2.30;;;19.10;46.70;;;;;;5040860;28;20931;-87
2022/08/07 03:41:17;;;;;;;2.88;2.67;;;19.30;46.10;;;;;;5041460;28;20345;-87
2022/08/07 03:43:44;;;;;;;3.00;2.80;;;19.20;46.00;;;;;;5027958;28;20195;-87
2022/08/07 03:46:13;;;;;;;3.33;3.00;;;19.20;46.70;;;;;;5036205;28;20289;-87
2022/08/07 03:48:39;;;;;;;2.85;2.65;;;19.30;47.30;;;;;;5041998;28;20238;-87
2022/08/07 03:51:06;;;;;;;3.83;3.53;;;19.30;46.20;;;;;;5056798;28;20665;-88
2022/08/07 03:53:32;;;;;;;2.78;2.58;;;19.50;46.70;;;;;;5023393;28;20219;-87
2022/08/07 03:55:59;;;;;;;4.43;3.53;;;19.30;46.10;;;;;;5031914;28;20208;-87
2022/08/07 03:58:27;;;;;;;3.25;2.95;;;19.40;46.70;;;;;;5052318;28;20206;-88
2022/08/07 04:00:56;;;;;;;2.92;2.67;;;19.40;45.60;;;;;;5048282;28;20180;-88
2022/08/07 04:03:23;;;;;;;2.83;2.63;;;19.20;46.00;;;;;;5052671;28;20274;-87
2022/08/07 04:05:49;;;;;;;3.25;2.95;;;19.20;46.70;;;;;;5056021;28;20188;-87
2022/08/07 04:08:15;;;;;;;3.40;2.78;;;19.10;47.10;;;;;;5067891;28;20222;-87
2022/08/07 04:10:42;;;;;;;4.70;2.78;;;19.00;47.20;;;;;;5052425;28;20189;-87
2022/08/07 04:13:11;;;;;;;2.97;2.75;;;19.00;47.40;;;;;;5061321;28;20197;-87
2022/08/07 04:15:37;;;;;;;2.70;2.50;;;19.00;47.60;;;;;;5039840;28;20181;-88
2022/08/07 04:18:03;;;;;;;2.40;2.20;;;19.00;47.10;;;;;;5052691;28;20184;-87
2022/08/07 04:20:30;;;;;;;2.80;2.42;;;19.20;47.40;;;;;;5035433;28;20350;-87
2022/08/07 04:22:57;;;;;;;2.38;2.28;;;19.20;46.90;;;;;;5018004;28;20664;-87
2022/08/07 04:25:25;;;;;;;3.03;2.30;;;19.00;47.40;;;;;;5054241;28;20222;-87
2022/08/07 04:27:52;;;;;;;2.92;2.50;;;19.10;46.70;;;;;;5020446;28;20181;-87
2022/08/07 04:30:18;;;;;;;2.38;2.17;;;19.10;47.00;;;;;;5032439;28;20208;-87
2022/08/07 04:32:44;;;;;;;3.58;2.40;;;19.20;46.70;;;;;;5022756;28;20190;-87
2022/08/07 04:35:11;;;;;;;2.58;2.42;;;19.10;46.90;;;;;;5058062;28;20168;-87
2022/08/07 04:37:37;;;;;;;3.28;2.60;;;19.20;46.30;;;;;;5029200;28;20188;-87
2022/08/07 04:40:04;;;;;;;3.30;2.55;;;19.10;46.70;;;;;;5012420;28;20201;-87
2022/08/07 04:42:33;;;;;;;3.05;2.13;;;19.10;46.60;;;;;;5050579;28;20192;-86
2022/08/07 04:45:01;;;;;;;3.80;2.50;;;19.00;47.00;;;;;;5037159;28;20184;-87
2022/08/07 04:47:26;;;;;;;2.95;2.65;;;18.90;47.10;;;;;;5051529;28;20204;-87
2022/08/07 04:50:04;;;;;;;2.60;2.40;;;18.90;47.20;;;;;;5047072;28;20213;-87
2022/08/07 04:52:50;;;;;;;2.72;2.50;;;18.90;47.90;;;;;;5046173;28;20188;-87
2022/08/07 04:55:24;;;;;;;2.55;2.22;;;18.90;47.10;;;;;;5043172;28;20613;-88
2022/08/07 04:58:18;;;;;;;2.47;2.28;;;18.80;47.10;;;;;;5027706;28;20189;-87
2022/08/07 05:00:58;;;;;;;2.15;2.05;;;18.80;47.30;;;;;;5033416;28;20185;-88
2022/08/07 05:03:30;;;;;;;3.85;2.30;;;18.90;47.40;;;;;;5046100;28;20292;-87
2022/08/07 05:06:17;;;;;;;2.53;2.40;;;18.90;46.60;;;;;;5057115;28;20184;-87
2022/08/07 05:09:16;;;;;;;2.10;2.00;;;18.60;47.90;;;;;;5039777;28;20565;-87
2022/08/07 05:11:50;;;;;;;2.50;2.30;;;18.70;48.00;;;;;;4963794;28;20230;-86
2022/08/07 05:14:31;;;;;;;2.78;2.30;;;18.60;47.80;;;;;;5018048;28;20208;-86
2022/08/07 05:17:01;;;;;;;2.45;2.25;;;18.60;47.90;;;;;;5051654;28;20192;-88
2022/08/07 05:19:34;;;;;;;2.72;2.38;;;18.70;48.70;;;;;;5054564;28;20204;-87
2022/08/07 05:22:01;;;;;;;2.33;2.13;;;18.80;47.70;;;;;;5062207;28;20194;-88
2022/08/07 05:24:28;;;;;;;2.53;2.33;;;18.70;47.80;;;;;;5060063;28;20199;-87
2022/08/07 05:26:58;;;;;;;3.05;2.17;;;18.50;48.50;;;;;;5045815;28;20183;-88
2022/08/07 05:29:27;;;;;;;3.90;2.50;;;18.50;48.50;;;;;;5048637;28;20210;-86
2022/08/07 05:31:54;;;;;;;2.45;2.20;;;18.60;48.00;;;;;;5051292;28;20187;-87
2022/08/07 05:34:22;;;;;;;2.30;2.10;;;18.60;48.20;;;;;;5055978;28;20201;-86
2022/08/07 05:36:54;;;;;;;3.28;2.30;;;18.80;48.30;;;;;;5029937;28;20197;-87
2022/08/07 05:39:22;;;;;;;2.33;2.13;;;18.80;47.30;;;;;;5031778;28;20241;-87
2022/08/07 05:41:49;;;;;;;2.45;2.30;;;18.60;47.60;;;;;;5045477;28;20222;-87
2022/08/07 05:44:18;;;;;;;2.92;2.53;;;18.40;48.60;;;;;;5032294;28;20191;-87
2022/08/07 05:46:47;;;;;;;3.33;2.53;;;18.50;49.00;;;;;;5053486;28;20190;-87
2022/08/07 05:49:13;;;;;;;4.03;2.22;;;18.50;48.10;;;;;;5037670;28;20246;-86
2022/08/07 05:51:42;;;;;;;2.50;2.30;;;18.60;47.90;;;;;;5059661;28;20212;-87
2022/08/07 05:54:08;;;;;;;2.60;2.20;;;18.60;46.80;;;;;;5067925;28;20218;-87
2022/08/07 05:56:36;;;;;;;2.45;2.20;;;18.80;46.30;;;;;;5050231;28;20231;-86
2022/08/07 05:59:04;;;;;;;2.20;2.00;;;18.80;45.20;;;;;;5036074;28;20780;-86
2022/08/07 06:01:31;;;;;;;4.30;2.15;;;18.70;46.30;;;;;;5046329;28;20202;-86
2022/08/07 06:03:59;;;;;;;1.98;1.88;;;18.70;45.90;;;;;;5051247;28;20215;-86
2022/08/07 06:06:25;;;;;;;2.27;2.13;;;18.60;46.30;;;;;;5051086;28;20725;-86
2022/08/07 06:08:53;;;;;;;2.43;1.80;;;18.60;46.40;;;;;;5048494;28;20298;-85
2022/08/07 06:11:18;;;;;;;2.40;2.20;;;18.60;45.80;;;;;;5049155;28;20258;-85
2022/08/07 06:13:44;;;;;;;2.10;2.00;;;18.60;46.30;;;;;;5052085;28;20838;-85
2022/08/07 06:16:11;;;;;;;2.13;2.00;;;18.60;45.70;;;;;;5034094;28;20198;-85
2022/08/07 06:18:38;;;;;;;3.10;2.10;;;18.60;45.90;;;;;;5052960;28;20258;-85
2022/08/07 06:21:04;;;;;;;2.40;2.20;;;18.60;46.60;;;;;;5046781;28;20794;-86
2022/08/07 06:23:31;;;;;;;2.10;1.90;;;18.70;46.10;;;;;;5038753;28;20291;-86
2022/08/07 06:25:58;;;;;;;2.30;2.10;;;18.70;46.30;;;;;;5042074;28;20182;-85
2022/08/07 06:28:25;;;;;;;2.17;2.00;;;18.80;45.80;;;;;;5061028;28;20188;-84
2022/08/07 06:30:50;;;;;;;5.10;2.50;;;18.80;45.90;;;;;;5055103;28;20212;-85
2022/08/07 06:33:18;;;;;;;2.13;2.03;;;19.00;46.10;;;;;;5058186;28;20848;-83
2022/08/07 06:35:43;;;;;;;2.13;1.92;;;19.00;44.50;;;;;;5056926;28;20549;-85
2022/08/07 06:38:09;;;;;;;2.35;2.15;;;19.20;44.40;;;;;;5047807;28;20195;-83
2022/08/07 06:40:49;;;;;;;2.30;2.13;;;19.30;44.50;;;;;;5050816;28;20191;-83
2022/08/07 06:43:19;;;;;;;2.70;2.30;;;19.40;45.20;;;;;;5057233;28;20191;-85
2022/08/07 06:45:45;;;;;;;4.18;2.20;;;19.50;44.20;;;;;;5051660;28;20188;-85
2022/08/07 06:48:11;;;;;;;2.28;2.08;;;19.50;44.30;;;;;;5055190;28;20203;-84
2022/08/07 06:50:40;;;;;;;2.40;2.20;;;19.50;44.40;;;;;;5056263;28;20188;-84
2022/08/07 06:53:07;;;;;;;2.20;2.00;;;19.50;44.40;;;;;;5056815;28;20200;-84
2022/08/07 06:55:34;;;;;;;2.28;2.08;;;19.40;44.50;;;;;;5060361;28;20245;-85
2022/08/07 06:58:06;;;;;;;2.30;2.20;;;19.50;44.50;;;;;;5053252;28;20193;-84
2022/08/07 07:00:35;;;;;;;2.53;2.30;;;19.60;44.70;;;;;;5056876;28;20204;-83
2022/08/07 07:03:02;;;;;;;2.42;2.17;;;19.80;44.30;;;;;;5072853;28;20191;-83
2022/08/07 07:05:28;;;;;;;2.40;2.20;;;19.80;44.10;;;;;;5066470;28;20206;-86
2022/08/07 07:07:54;;;;;;;3.17;2.50;;;19.80;45.00;;;;;;5062215;28;20192;-84
2022/08/07 07:10:32;;;;;;;3.00;2.33;;;19.80;45.20;;;;;;5051294;28;20203;-85
2022/08/07 07:13:12;;;;;;;4.47;2.80;;;20.00;44.90;;;;;;5010762;28;20177;-89
2022/08/07 07:15:43;;;;;;;4.03;2.70;;;19.90;45.00;;;;;;5051404;28;20735;-89
2022/08/07 07:18:15;;;;;;;2.60;2.40;;;19.90;45.50;;;;;;5049424;28;20185;-87
2022/08/07 07:20:52;;;;;;;2.70;2.50;;;20.10;45.70;;;;;;5046126;28;20213;-87
2022/08/07 07:23:19;;;;;;;2.90;2.60;;;20.30;45.30;;;;;;5054176;28;20230;-85
2022/08/07 07:25:47;;;;;;;6.25;2.58;;;20.40;45.40;;;;;;5047496;28;20177;-86
2022/08/07 07:28:26;;;;;;;2.88;2.67;;;20.50;45.40;;;;;;5048483;28;20195;-86
2022/08/07 07:31:00;;;;;;;4.47;3.00;;;20.50;45.50;;;;;;5052100;28;20358;-86
2022/08/07 07:33:29;;;;;;;2.78;2.65;;;20.60;44.90;;;;;;5048797;28;20199;-86
2022/08/07 07:35:57;;;;;;;3.15;2.88;;;20.70;45.10;;;;;;5051010;28;20180;-86
2022/08/07 07:38:26;;;;;;;2.83;2.63;;;20.70;45.20;;;;;;5045385;28;20181;-87
2022/08/07 07:40:59;;;;;;;3.20;2.90;;;20.90;44.70;;;;;;5048888;28;20204;-87
2022/08/07 07:43:28;;;;;;;4.22;2.80;;;20.90;45.20;;;;;;5033033;28;20184;-87
2022/08/07 07:45:54;;;;;;;3.53;2.97;;;21.10;44.80;;;;;;5044789;28;20188;-87
2022/08/07 07:48:22;;;;;;;3.00;2.80;;;21.10;45.10;;;;;;5047996;28;20177;-86
2022/08/07 07:50:49;;;;;;;3.42;3.13;;;21.20;45.00;;;;;;5051113;28;20189;-86
2022/08/07 07:53:20;;;;;;;3.65;2.97;;;21.20;45.40;;;;;;5039710;28;20199;-86
2022/08/07 07:55:46;;;;;;;2.95;2.70;;;21.40;44.70;;;;;;5023713;28;20300;-86
2022/08/07 07:58:13;;;;;;;3.08;2.78;;;21.40;45.00;;;;;;5052430;28;20211;-87
2022/08/07 08:00:42;;;;;;;2.88;2.60;;;21.60;44.70;;;;;;5029450;28;20204;-88
2022/08/07 08:03:12;;;;;;;2.92;2.72;;;21.70;44.60;;;;;;5047991;28;20175;-86
2022/08/07 08:05:40;;;;;;;2.83;2.63;;;21.80;43.80;;;;;;5025748;28;20673;-86
2022/08/07 08:08:08;;;;;;;2.80;2.60;;;21.60;44.60;;;;;;5061501;28;20177;-85
2022/08/07 08:10:35;;;;;;;4.15;3.20;;;21.70;45.80;;;;;;5053970;28;20195;-85
2022/08/07 08:13:03;;;;;;;3.20;2.90;;;21.90;45.10;;;;;;5049274;28;20193;-86
2022/08/07 08:15:33;;;;;;;2.78;2.58;;;21.80;45.00;;;;;;5049163;28;20711;-84
2022/08/07 08:18:00;;;;;;;4.18;2.75;;;21.90;45.50;;;;;;5049950;28;20717;-85
2022/08/07 08:20:30;;;;;;;3.28;3.03;;;22.20;44.90;;;;;;5050849;28;20210;-86
2022/08/07 08:28:29;;;;;;;3.53;3.08;;;22.80;42.90;;;;;;5053886;28;20249;-86
2022/08/07 08:30:58;;;;;;;3.58;3.28;;;22.80;43.70;;;;;;5057764;28;20181;-85
2022/08/07 08:33:33;;;;;;;3.28;3.08;;;22.90;43.30;;;;;;5049577;28;20213;-84
2022/08/07 08:36:05;;;;;;;3.33;3.10;;;22.80;43.80;;;;;;5026840;28;20195;-84
2022/08/07 08:38:41;;;;;;;3.45;3.15;;;22.80;44.00;;;;;;5028895;28;20207;-85
2022/08/07 08:41:45;;;;;;;3.50;3.28;;;23.10;42.90;;;;;;5047041;28;20189;-86
2022/08/07 08:44:35;;;;;;;3.40;3.20;;;23.40;42.20;;;;;;5036796;28;20200;-87
2022/08/07 08:47:21;;;;;;;3.20;3.00;;;23.50;41.60;;;;;;5041125;28;20203;-85
2022/08/07 08:50:07;;;;;;;3.00;2.80;;;23.60;42.10;;;;;;5034040;28;20239;-87
2022/08/07 08:52:43;;;;;;;3.38;3.17;;;23.70;41.50;;;;;;5044281;28;20199;-88
2022/08/07 08:55:26;;;;;;;4.88;3.20;;;23.50;43.00;;;;;;5055152;28;20212;-87
2022/08/07 08:58:03;;;;;;;7.10;3.33;;;23.90;42.60;;;;;;5036130;28;20269;-88
2022/08/07 09:00:34;;;;;;;3.55;3.25;;;24.20;40.60;;;;;;5038257;28;20222;-88
2022/08/07 09:03:31;;;;;;;3.33;3.03;;;24.40;41.10;;;;;;5056562;28;20211;-88
2022/08/07 09:06:09;;;;;;;4.38;3.20;;;24.40;41.30;;;;;;5042231;28;20215;-89
2022/08/07 09:09:04;;;;;;;3.40;3.20;;;24.60;41.00;;;;;;5052283;28;20208;-88
2022/08/07 09:11:48;;;;;;;3.28;3.08;;;24.80;39.40;;;;;;5009950;28;20216;-89
2022/08/07 09:14:23;;;;;;;3.35;3.05;;;24.90;39.50;;;;;;5051406;28;20227;-88
2022/08/07 09:16:56;;;;;;;3.20;3.00;;;25.10;39.30;;;;;;5058109;28;20326;-88
2022/08/07 09:19:31;;;;;;;3.80;3.50;;;25.10;38.80;;;;;;5058696;28;20200;-88
2022/08/07 09:22:12;;;;;;;5.28;3.28;;;25.20;38.30;;;;;;5050796;28;20190;-86
2022/08/07 09:25:06;;;;;;;3.13;2.92;;;25.30;37.60;;;;;;5050255;28;20239;-88
2022/08/07 09:27:58;;;;;;;3.63;3.30;;;25.30;37.80;;;;;;5030153;28;20189;-88
2022/08/07 09:30:30;;;;;;;3.60;3.33;;;25.50;37.70;;;;;;5051443;28;20204;-86
2022/08/07 09:33:12;;;;;;;4.53;3.38;;;25.50;37.50;;;;;;5044129;28;20657;-88
2022/08/07 09:36:13;;;;;;;3.70;3.40;;;25.90;36.90;;;;;;5034141;28;20180;-88
2022/08/07 09:38:49;;;;;;;5.05;3.10;;;26.00;34.80;;;;;;5043214;28;20204;-88
2022/08/07 09:41:39;;;;;;;3.30;3.10;;;26.10;35.40;;;;;;5044485;28;20216;-88
2022/08/07 09:44:17;;;;;;;3.20;3.00;;;26.10;36.40;;;;;;5044102;28;20181;-88
2022/08/07 09:46:55;;;;;;;3.58;3.28;;;26.30;34.30;;;;;;5048127;28;20184;-88
2022/08/07 09:49:32;;;;;;;4.97;3.10;;;26.10;34.80;;;;;;5033717;28;20285;-89
2022/08/07 09:52:21;;;;;;;3.40;3.13;;;26.30;32.30;;;;;;5062128;28;20184;-89
2022/08/07 09:55:13;;;;;;;4.57;2.92;;;26.20;32.30;;;;;;5047110;28;20215;-88
2022/08/07 09:57:49;;;;;;;3.67;3.03;;;26.40;32.60;;;;;;5026397;28;20201;-91
2022/08/07 10:00:20;;;;;;;2.83;2.63;;;26.80;31.70;;;;;;5043818;28;20216;-90
2022/08/07 10:03:17;;;;;;;2.65;2.55;;;27.00;29.20;;;;;;5050447;28;20229;-89
2022/08/07 10:06:04;;;;;;;3.30;3.00;;;27.40;29.40;;;;;;5051297;28;20173;-89
2022/08/07 10:08:50;;;;;;;3.40;3.13;;;27.30;29.80;;;;;;5053208;28;20196;-90
2022/08/07 10:11:50;;;;;;;3.42;2.85;;;27.30;30.00;;;;;;5051932;28;20233;-89
2022/08/07 10:14:16;;;;;;;3.50;2.97;;;27.30;30.00;;;;;;5054008;28;20203;-89
2022/08/07 10:17:05;;;;;;;12.95;5.25;;;27.40;29.50;;;;;;5054195;28;20176;-89
2022/08/07 10:19:37;;;;;;;3.88;3.00;;;27.50;29.40;;;;;;5059000;28;20196;-89
2022/08/07 10:22:27;;;;;;;3.28;2.97;;;27.80;29.10;;;;;;5036249;28;20216;-89
2022/08/07 10:25:09;;;;;;;3.13;2.92;;;27.90;29.10;;;;;;5059333;28;20203;-89
2022/08/07 10:27:50;;;;;;;3.05;2.88;;;28.20;28.40;;;;;;5030707;28;20184;-89
2022/08/07 10:30:50;;;;;;;2.90;2.70;;;28.30;26.80;;;;;;5057103;28;20561;-91
2022/08/07 10:33:38;;;;;;;3.30;3.00;;;28.20;26.60;;;;;;5040076;28;20303;-89
2022/08/07 10:36:15;;;;;;;3.30;3.00;;;28.50;26.80;;;;;;5058303;28;20184;-89
2022/08/07 10:39:01;;;;;;;3.70;2.88;;;28.60;26.50;;;;;;5053353;28;20243;-89
2022/08/07 10:41:35;;;;;;;3.70;2.78;;;28.70;26.30;;;;;;5035874;28;20212;-88
2022/08/07 10:44:19;;;;;;;3.35;3.00;;;28.90;26.40;;;;;;5050058;28;20179;-90
2022/08/07 10:47:08;;;;;;;3.05;2.80;;;28.80;26.30;;;;;;5053213;28;20179;-89
2022/08/07 10:49:49;;;;;;;2.92;2.72;;;28.70;26.50;;;;;;5036731;28;20294;-89
2022/08/07 10:52:23;;;;;;;2.80;2.70;;;28.70;26.10;;;;;;5041670;28;20180;-89
2022/08/07 10:55:51;;;;;;;3.10;2.90;;;28.90;26.30;;;;;;5048793;28;20231;-89
2022/08/07 10:58:29;;;;;;;2.92;2.72;;;29.00;27.30;;;;;;4974337;28;20188;-89
2022/08/07 11:01:12;;;;;;;3.17;2.90;;;29.40;26.30;;;;;;5046229;28;20192;-89
2022/08/07 11:03:47;;;;;;;3.65;2.78;;;29.80;25.80;;;;;;5053290;28;20173;-90
2022/08/07 11:06:27;;;;;;;4.00;2.60;;;29.90;25.90;;;;;;5053890;28;20906;-89
2022/08/07 11:09:01;;;;;;;4.75;3.00;;;29.80;26.10;;;;;;5056697;28;20223;-89
2022/08/07 11:11:43;;;;;;;3.25;2.95;;;29.60;25.60;;;;;;5053393;28;20180;-89
2022/08/07 11:14:45;;;;;;;2.90;2.70;;;29.60;25.50;;;;;;5027202;28;20262;-89
2022/08/07 11:17:20;;;;;;;2.80;2.65;;;29.60;26.00;;;;;;5037163;28;20187;-89
2022/08/07 11:20:10;;;;;;;3.72;2.72;;;29.50;26.20;;;;;;5050904;28;20204;-89
2022/08/07 11:23:00;;;;;;;3.13;2.80;;;29.60;26.20;;;;;;5049967;28;20177;-88
2022/08/07 11:25:35;;;;;;;3.00;2.80;;;29.90;25.70;;;;;;5041205;28;20181;-89
2022/08/07 11:28:33;;;;;;;2.95;2.83;;;30.30;25.70;;;;;;5028925;28;20184;-90
2022/08/07 11:31:18;;;;;;;3.00;2.80;;;30.60;24.40;;;;;;5031923;28;20220;-88
2022/08/07 11:33:56;;;;;;;3.05;2.95;;;30.60;24.60;;;;;;5038044;28;20200;-89
2022/08/07 11:36:48;;;;;;;2.78;2.67;;;30.70;24.40;;;;;;5040978;28;20188;-89
2022/08/07 11:39:34;;;;;;;3.10;2.90;;;30.50;23.70;;;;;;5058712;28;20251;-89
2022/08/07 11:42:13;;;;;;;2.90;2.70;;;30.80;23.50;;;;;;5059401;28;20182;-89
2022/08/07 11:44:48;;;;;;;2.80;2.70;;;31.10;23.90;;;;;;5050239;28;20196;-89
2022/08/07 11:47:24;;;;;;;2.97;2.88;;;30.70;24.00;;;;;;5032570;28;20225;-89
2022/08/07 11:50:21;;;;;;;3.17;2.97;;;31.10;24.00;;;;;;5034275;28;20207;-89
2022/08/07 11:53:15;;;;;;;3.20;2.90;;;31.70;23.10;;;;;;5031475;28;20205;-89
2022/08/07 11:55:50;;;;;;;2.90;2.70;;;31.80;22.30;;;;;;5050807;28;20204;-88
2022/08/07 11:58:23;;;;;;;3.17;3.08;;;31.70;22.30;;;;;;5034308;28;20188;-88
2022/08/07 12:01:08;;;;;;;3.17;2.90;;;31.80;22.30;;;;;;5049584;28;20193;-88
2022/08/07 12:03:52;;;;;;;3.95;2.78;;;31.70;22.70;;;;;;5028143;28;20192;-88
2022/08/07 12:06:21;;;;;;;3.00;2.80;;;31.70;23.10;;;;;;5039557;28;20833;-89
2022/08/07 12:08:57;;;;;;;3.17;2.88;;;32.00;22.00;;;;;;5048040;28;20301;-89
2022/08/07 12:11:31;;;;;;;2.83;2.70;;;32.00;22.20;;;;;;5051026;28;20176;-89
2022/08/07 12:14:10;;;;;;;3.00;2.90;;;32.30;21.90;;;;;;5046687;28;20700;-89
2022/08/07 12:16:45;;;;;;;3.47;2.92;;;32.50;21.80;;;;;;5037967;28;20238;-89
2022/08/07 12:19:18;;;;;;;2.90;2.80;;;32.50;21.80;;;;;;5045462;28;20196;-88
2022/08/07 12:22:11;;;;;;;3.13;2.92;;;32.40;21.30;;;;;;5053540;28;20180;-88
2022/08/07 12:27:45;;;;;;;2.65;2.55;;;31.90;22.10;;;;;;5050014;28;20598;-89
2022/08/07 12:30:14;;;;;;;3.40;3.00;;;32.50;21.40;;;;;;5048885;28;20681;-90
2022/08/07 12:33:08;;;;;;;2.80;2.70;;;32.80;20.80;;;;;;5051215;28;20258;-89
2022/08/07 12:35:36;;;;;;;2.83;2.72;;;32.80;20.90;;;;;;5042664;28;20256;-89
2022/08/07 12:38:03;;;;;;;3.47;3.00;;;32.90;20.60;;;;;;5043429;28;20177;-89
2022/08/07 12:40:31;;;;;;;3.08;2.70;;;33.20;20.70;;;;;;5040230;28;20516;-89
2022/08/07 12:43:01;;;;;;;3.13;2.90;;;32.90;20.30;;;;;;5046451;28;20181;-89
2022/08/07 12:45:34;;;;;;;2.90;2.80;;;32.90;20.40;;;;;;5007910;28;20192;-89
2022/08/07 12:48:16;;;;;;;3.10;2.90;;;33.00;20.60;;;;;;5042300;28;20268;-89
2022/08/07 12:50:56;;;;;;;3.05;2.85;;;32.80;20.60;;;;;;5048391;28;20246;-89
2022/08/07 12:53:37;;;;;;;2.88;2.78;;;32.90;20.40;;;;;;5038461;28;20254;-89
2022/08/07 12:56:24;;;;;;;3.13;2.95;;;33.30;20.10;;;;;;5026840;28;20204;-89
2022/08/07 12:58:51;;;;;;;3.35;3.15;;;33.50;19.50;;;;;;5052794;28;20197;-90
2022/08/07 13:01:48;;;;;;;3.10;3.00;;;33.50;19.90;;;;;;5040491;28;20184;-90
2022/08/07 13:04:23;;;;;;;4.20;3.00;;;33.20;20.40;;;;;;5040577;28;20203;-89
2022/08/07 13:07:09;;;;;;;4.25;2.80;;;32.90;19.80;;;;;;5057315;28;20210;-90
2022/08/07 13:09:48;;;;;;;3.17;2.97;;;33.80;19.30;;;;;;5031017;28;20220;-90
2022/08/07 13:12:32;;;;;;;3.42;2.78;;;33.90;19.10;;;;;;5034289;28;20210;-90
2022/08/07 13:15:07;;;;;;;3.20;3.10;;;34.10;18.80;;;;;;5050984;28;20257;-92
2022/08/07 13:18:12;;;;;;;3.10;3.00;;;34.40;19.00;;;;;;5034960;28;20188;-89
2022/08/07 13:20:49;;;;;;;3.25;3.15;;;34.60;17.90;;;;;;5005838;28;20270;-89
2022/08/07 13:23:23;;;;;;;3.17;3.08;;;34.30;19.30;;;;;;5024521;28;20218;-90
2022/08/07 13:26:14;;;;;;;3.33;3.13;;;34.40;19.40;;;;;;5070678;28;20249;-89
2022/08/07 13:29:13;;;;;;;3.42;3.22;;;34.70;19.00;;;;;;5052661;28;20204;-89